createdAt,value
2022-09-15T00:00:30.239Z,17.50
2022-09-15T00:02:57.165Z,17.90
2022-09-15T00:05:23.853Z,18.50
2022-09-15T00:07:50.580Z,17.80
2022-09-15T00:10:17.681Z,19.00
2022-09-15T00:12:44.322Z,17.30
2022-09-15T00:15:13.332Z,18.20
2022-09-15T00:17:40.302Z,17.20
2022-09-15T00:20:07.578Z,17.40
2022-09-15T00:22:34.225Z,17.20
2022-09-15T00:25:00.837Z,17.20
2022-09-15T00:27:27.521Z,18.10
2022-09-15T00:29:54.208Z,17.20
2022-09-15T00:32:20.774Z,17.20
2022-09-15T00:34:49.481Z,18.00
2022-09-15T00:37:16.117Z,18.60
2022-09-15T00:39:42.792Z,17.20
2022-09-15T00:42:14.686Z,17.20
2022-09-15T00:44:46.119Z,17.80
2022-09-15T00:47:19.525Z,17.20
2022-09-15T00:49:48.595Z,18.80
2022-09-15T00:52:25.247Z,17.10
2022-09-15T00:54:57.413Z,17.10
2022-09-15T00:57:33.206Z,17.10
2022-09-15T01:00:00.550Z,17.10
2022-09-15T01:02:29.119Z,18.50
2022-09-15T01:04:58.567Z,18.10
2022-09-15T01:07:37.566Z,17.20
2022-09-15T01:10:30.612Z,17.00
2022-09-15T01:12:58.755Z,17.10
2022-09-15T01:15:28.641Z,17.50
2022-09-15T01:18:01.213Z,18.00
2022-09-15T01:20:37.540Z,17.00
2022-09-15T01:23:10.519Z,17.00
2022-09-15T01:25:50.889Z,17.00
2022-09-15T01:28:38.950Z,16.90
2022-09-15T01:31:10.211Z,16.90
2022-09-15T01:33:46.998Z,16.90
2022-09-15T01:36:25.172Z,16.90
2022-09-15T01:39:01.039Z,16.80
2022-09-15T01:41:29.784Z,16.80
2022-09-15T01:44:02.014Z,16.90
2022-09-15T01:46:31.386Z,16.90
2022-09-15T01:49:00.100Z,18.50
2022-09-15T01:51:27.167Z,16.70
2022-09-15T01:53:54.544Z,16.70
2022-09-15T01:56:21.138Z,16.70
2022-09-15T01:58:49.188Z,16.80
2022-09-15T02:01:28.098Z,17.10
2022-09-15T02:04:08.561Z,16.70
2022-09-15T02:06:40.819Z,17.20
2022-09-15T02:09:12.845Z,16.60
2022-09-15T02:11:45.528Z,16.60
2022-09-15T02:14:21.748Z,16.60
2022-09-15T02:16:50.027Z,16.60
2022-09-15T02:19:31.305Z,16.70
2022-09-15T02:22:04.414Z,16.70
2022-09-15T02:24:40.475Z,16.70
2022-09-15T02:27:12.284Z,16.70
2022-09-15T02:29:39.237Z,16.80
2022-09-15T02:32:07.498Z,17.80
2022-09-15T02:34:36.550Z,16.70
2022-09-15T02:37:04.751Z,16.70
2022-09-15T02:39:33.006Z,17.80
2022-09-15T02:42:02.291Z,16.70
2022-09-15T02:44:30.713Z,18.10
2022-09-15T02:47:01.880Z,19.40
2022-09-15T02:49:28.568Z,16.60
2022-09-15T02:51:55.168Z,16.60
2022-09-15T02:54:21.834Z,17.00
2022-09-15T02:56:48.589Z,18.10
2022-09-15T02:59:15.236Z,17.20
2022-09-15T03:01:41.978Z,19.50
2022-09-15T03:04:08.666Z,16.50
2022-09-15T03:06:35.920Z,19.20
2022-09-15T03:09:05.245Z,16.60
2022-09-15T03:11:32.589Z,16.60
2022-09-15T03:14:00.467Z,16.60
2022-09-15T03:16:27.836Z,16.50
2022-09-15T03:18:55.783Z,16.50
2022-09-15T03:21:22.717Z,16.50
2022-09-15T03:23:49.290Z,16.80
2022-09-15T03:26:15.961Z,16.50
2022-09-15T03:28:42.657Z,17.20
2022-09-15T03:31:09.515Z,16.50
2022-09-15T03:33:36.592Z,16.80
2022-09-15T03:36:03.338Z,16.50
2022-09-15T03:38:29.944Z,16.40
2022-09-15T03:41:01.586Z,16.40
2022-09-15T03:43:28.927Z,18.00
2022-09-15T03:45:56.156Z,16.20
2022-09-15T03:48:23.628Z,16.40
2022-09-15T03:50:50.532Z,16.50
2022-09-15T03:53:17.749Z,16.40
2022-09-15T03:55:45.420Z,17.90
2022-09-15T03:58:12.725Z,16.30
2022-09-15T04:00:40.777Z,16.30
2022-09-15T04:03:08.490Z,16.30
2022-09-15T04:05:36.055Z,16.30
2022-09-15T04:08:02.781Z,17.80
2022-09-15T04:10:29.426Z,16.20
2022-09-15T04:12:55.991Z,17.00
2022-09-15T04:15:22.737Z,16.70
2022-09-15T04:17:49.574Z,16.60
2022-09-15T04:20:17.248Z,16.80
2022-09-15T04:22:44.627Z,16.10
2022-09-15T04:25:11.663Z,16.90
2022-09-15T04:27:38.724Z,16.20
2022-09-15T04:30:06.919Z,16.10
2022-09-15T04:32:33.534Z,16.10
2022-09-15T04:35:00.321Z,16.10
2022-09-15T04:37:26.939Z,16.20
2022-09-15T04:39:53.774Z,16.20
2022-09-15T04:42:21.680Z,16.20
2022-09-15T04:44:48.278Z,16.50
2022-09-15T04:47:14.979Z,16.40
2022-09-15T04:49:41.620Z,16.40
2022-09-15T04:52:10.121Z,16.30
2022-09-15T04:54:36.818Z,16.50
2022-09-15T04:57:03.460Z,16.20
2022-09-15T04:59:30.129Z,16.30
2022-09-15T05:01:56.719Z,16.40
2022-09-15T05:04:23.346Z,16.40
2022-09-15T05:06:49.975Z,16.80
2022-09-15T05:09:16.626Z,16.70
2022-09-15T05:11:43.270Z,17.80
2022-09-15T05:14:10.748Z,16.50
2022-09-15T05:16:37.451Z,16.20
2022-09-15T05:19:04.819Z,16.20
2022-09-15T05:21:31.969Z,16.10
2022-09-15T05:23:58.660Z,16.30
2022-09-15T05:26:26.944Z,17.30
2022-09-15T05:28:53.968Z,16.40
2022-09-15T05:31:25.660Z,17.60
2022-09-15T05:33:53.267Z,17.90
2022-09-15T05:36:21.249Z,16.20
2022-09-15T05:38:47.920Z,16.20
2022-09-15T05:41:18.477Z,16.20
2022-09-15T05:43:46.301Z,16.30
2022-09-15T05:46:13.695Z,16.20
2022-09-15T05:48:40.319Z,17.80
2022-09-15T05:51:07.061Z,16.60
2022-09-15T05:53:34.834Z,16.40
2022-09-15T05:56:03.123Z,17.10
2022-09-15T05:58:30.531Z,16.50
2022-09-15T06:00:57.398Z,16.60
2022-09-15T06:03:28.672Z,17.50
2022-09-15T06:06:00.757Z,16.90
2022-09-15T06:08:31.843Z,16.50
2022-09-15T06:11:06.883Z,16.50
2022-09-15T06:13:33.532Z,16.60
2022-09-15T06:16:00.917Z,16.60
2022-09-15T06:18:27.591Z,17.10
2022-09-15T06:20:54.120Z,16.70
2022-09-15T06:23:20.730Z,17.50
2022-09-15T06:25:47.278Z,16.90
2022-09-15T06:28:13.917Z,16.70
2022-09-15T06:30:40.505Z,16.70
2022-09-15T06:33:07.200Z,16.80
2022-09-15T06:35:33.776Z,17.30
2022-09-15T06:38:00.408Z,16.80
2022-09-15T06:40:27.360Z,16.90
2022-09-15T06:42:57.222Z,19.30
2022-09-15T06:45:23.867Z,17.00
2022-09-15T06:48:07.397Z,19.50
2022-09-15T06:50:38.381Z,17.00
2022-09-15T06:53:05.050Z,17.10
2022-09-15T06:55:31.672Z,17.10
2022-09-15T06:57:58.453Z,17.10
2022-09-15T07:00:25.692Z,18.70
2022-09-15T07:02:53.636Z,17.60
2022-09-15T07:05:20.422Z,17.10
2022-09-15T07:07:47.044Z,17.10
2022-09-15T07:10:13.674Z,17.20
2022-09-15T07:12:40.232Z,17.20
2022-09-15T07:15:07.130Z,17.20
2022-09-15T07:17:33.824Z,17.20
2022-09-15T07:20:01.252Z,17.20
2022-09-15T07:22:27.931Z,17.20
2022-09-15T07:24:54.551Z,17.80
2022-09-15T07:27:24.970Z,18.90
2022-09-15T07:29:51.582Z,17.30
2022-09-15T07:32:18.259Z,18.70
2022-09-15T07:34:44.855Z,17.30
2022-09-15T07:37:11.534Z,17.20
2022-09-15T07:39:38.284Z,19.70
2022-09-15T07:42:04.898Z,17.60
2022-09-15T07:44:32.064Z,17.20
2022-09-15T07:46:58.725Z,18.50
2022-09-15T07:49:25.909Z,17.20
2022-09-15T07:51:52.819Z,17.20
2022-09-15T07:54:22.852Z,17.30
2022-09-15T07:56:49.879Z,18.20
2022-09-15T07:59:16.577Z,17.30
2022-09-15T08:01:46.939Z,17.50
2022-09-15T08:04:14.125Z,17.20
2022-09-15T08:06:40.928Z,17.20
2022-09-15T08:09:08.248Z,17.20
2022-09-15T08:11:34.919Z,17.60
2022-09-15T08:14:03.278Z,17.50
2022-09-15T08:16:30.184Z,17.30
2022-09-15T08:18:56.980Z,17.60
2022-09-15T08:21:24.114Z,17.50
2022-09-15T08:23:52.387Z,17.90
2022-09-15T08:26:19.335Z,17.70
2022-09-15T08:28:46.129Z,17.90
2022-09-15T08:31:13.814Z,17.90
2022-09-15T08:33:45.247Z,17.90
2022-09-15T08:36:12.733Z,17.90
2022-09-15T08:38:40.887Z,18.10
2022-09-15T08:41:10.954Z,18.00
2022-09-15T08:43:42.767Z,18.00
2022-09-15T08:46:13.608Z,18.10
2022-09-15T08:48:42.508Z,18.10
2022-09-15T08:51:16.842Z,18.80
2022-09-15T08:53:51.098Z,18.40
2022-09-15T08:56:18.266Z,18.20
2022-09-15T08:58:45.866Z,18.20
2022-09-15T09:01:12.535Z,18.20
2022-09-15T09:03:58.224Z,18.10
2022-09-15T09:06:30.850Z,18.10
2022-09-15T09:08:57.427Z,18.20
2022-09-15T09:11:43.174Z,19.40
2022-09-15T09:14:28.563Z,18.20
2022-09-15T09:16:58.210Z,18.20
2022-09-15T09:19:36.239Z,18.20
2022-09-15T09:22:07.134Z,18.20
2022-09-15T09:24:36.537Z,19.50
2022-09-15T09:27:03.770Z,18.30
2022-09-15T09:29:35.733Z,18.30
2022-09-15T09:32:02.560Z,18.30
2022-09-15T09:34:42.675Z,18.50
2022-09-15T09:37:11.083Z,18.90
2022-09-15T09:39:37.717Z,18.50
2022-09-15T09:42:05.795Z,18.50
2022-09-15T09:44:32.801Z,18.50
2022-09-15T09:47:00.107Z,19.60
2022-09-15T09:49:31.146Z,19.00
2022-09-15T09:51:59.876Z,18.80
2022-09-15T09:54:28.664Z,18.80
2022-09-15T09:56:56.664Z,18.90
2022-09-15T09:59:40.080Z,19.00
2022-09-15T10:02:18.890Z,19.10
2022-09-15T10:04:46.611Z,19.10
2022-09-15T10:07:14.260Z,19.70
2022-09-15T10:09:49.505Z,20.90
2022-09-15T10:12:21.167Z,20.50
2022-09-15T10:14:52.509Z,19.10
2022-09-15T10:17:20.871Z,19.00
2022-09-15T10:19:57.836Z,19.80
2022-09-15T10:22:35.419Z,19.10
2022-09-15T10:25:03.128Z,20.30
2022-09-15T10:27:31.615Z,20.30
2022-09-15T10:30:16.481Z,19.30
2022-09-15T10:32:43.288Z,19.30
2022-09-15T10:35:14.217Z,19.30
2022-09-15T10:37:50.039Z,19.30
2022-09-15T10:40:19.427Z,20.00
2022-09-15T10:42:50.688Z,19.20
2022-09-15T10:45:18.810Z,19.20
2022-09-15T10:47:45.449Z,19.00
2022-09-15T10:50:18.237Z,19.10
2022-09-15T10:52:44.856Z,18.50
2022-09-15T10:55:54.865Z,19.50
2022-09-15T10:58:45.146Z,17.10
2022-09-15T11:01:28.425Z,16.40
2022-09-15T11:04:08.496Z,15.90
2022-09-15T11:06:42.491Z,15.60
2022-09-15T11:09:12.059Z,15.40
2022-09-15T11:11:41.812Z,15.30
2022-09-15T11:14:20.786Z,15.30
2022-09-15T11:16:50.529Z,15.20
2022-09-15T11:19:17.310Z,15.10
2022-09-15T11:22:04.663Z,16.60
2022-09-15T11:24:36.590Z,15.10
2022-09-15T11:27:19.192Z,16.40
2022-09-15T11:30:01.184Z,15.00
2022-09-15T11:32:34.220Z,15.00
2022-09-15T11:35:21.098Z,15.00
2022-09-15T11:37:49.493Z,15.20
2022-09-15T11:40:18.817Z,16.00
2022-09-15T11:42:48.483Z,15.00
2022-09-15T11:45:18.198Z,15.00
2022-09-15T11:47:47.661Z,15.00
2022-09-15T11:50:20.615Z,14.80
2022-09-15T11:53:08.206Z,14.70
2022-09-15T11:55:38.203Z,14.60
2022-09-15T11:58:16.383Z,14.60
2022-09-15T12:00:53.987Z,14.70
2022-09-15T12:03:22.433Z,14.70
2022-09-15T12:05:52.605Z,14.60
2022-09-15T12:08:39.455Z,14.50
2022-09-15T12:11:08.349Z,16.10
2022-09-15T12:13:36.632Z,14.50
2022-09-15T12:16:03.974Z,16.40
2022-09-15T12:18:46.557Z,16.50
2022-09-15T12:21:26.895Z,14.50
2022-09-15T12:23:59.909Z,14.50
2022-09-15T12:26:27.088Z,14.60
2022-09-15T12:28:56.079Z,15.80
2022-09-15T12:31:22.702Z,15.90
2022-09-15T12:34:05.872Z,14.60
2022-09-15T12:36:38.123Z,14.50
2022-09-15T12:39:21.040Z,14.40
2022-09-15T12:41:52.469Z,14.40
2022-09-15T12:44:23.948Z,14.30
2022-09-15T12:46:51.515Z,14.40
2022-09-15T12:49:20.637Z,14.50
2022-09-15T12:51:49.347Z,15.80
2022-09-15T12:54:22.869Z,16.80
2022-09-15T12:56:53.434Z,14.60
2022-09-15T12:59:22.649Z,14.70
2022-09-15T13:01:50.395Z,14.80
2022-09-15T13:04:35.807Z,16.50
2022-09-15T13:07:14.689Z,14.70
2022-09-15T13:09:45.579Z,14.70
2022-09-15T13:12:15.128Z,14.70
2022-09-15T13:14:45.033Z,16.30
2022-09-15T13:17:20.476Z,14.70
2022-09-15T13:19:48.928Z,14.80
2022-09-15T13:22:29.886Z,16.20
2022-09-15T13:25:01.693Z,14.90
2022-09-15T13:27:39.681Z,14.90
2022-09-15T13:30:09.617Z,15.10
2022-09-15T13:32:39.784Z,15.20
2022-09-15T13:35:15.386Z,15.20
2022-09-15T13:40:38.468Z,16.40
2022-09-15T13:43:16.839Z,15.30
2022-09-15T13:46:02.596Z,15.40
2022-09-15T13:48:32.255Z,15.40
2022-09-15T13:51:00.891Z,15.50
2022-09-15T13:53:30.594Z,15.60
2022-09-15T13:55:58.359Z,15.60
2022-09-15T14:01:12.766Z,17.70
2022-09-15T14:03:42.537Z,18.00
2022-09-15T14:06:14.081Z,15.90
2022-09-15T14:08:42.115Z,15.80
2022-09-15T14:11:11.413Z,15.90
2022-09-15T14:13:41.037Z,16.00
2022-09-15T14:16:26.429Z,16.60
2022-09-15T14:18:54.506Z,16.20
2022-09-15T14:21:22.707Z,16.20
2022-09-15T14:23:59.311Z,16.00
2022-09-15T14:26:27.526Z,15.90
2022-09-15T14:28:58.707Z,16.00
2022-09-15T14:31:33.419Z,15.80
2022-09-15T14:34:00.954Z,15.80
2022-09-15T14:36:29.729Z,15.90
2022-09-15T14:39:11.488Z,17.60
2022-09-15T14:41:41.966Z,16.00
2022-09-15T14:47:18.746Z,16.10
2022-09-15T14:49:45.409Z,16.20
2022-09-15T14:52:22.731Z,17.60
2022-09-15T14:54:50.140Z,16.10
2022-09-15T14:57:19.564Z,16.40
2022-09-15T14:59:52.563Z,16.10
2022-09-15T15:02:24.317Z,16.10
2022-09-15T15:04:53.495Z,17.90
2022-09-15T15:07:23.624Z,16.40
2022-09-15T15:09:54.406Z,16.40
2022-09-15T15:12:28.821Z,16.40
2022-09-15T15:14:56.210Z,16.30
2022-09-15T15:17:25.184Z,16.50
2022-09-15T15:19:57.573Z,16.30
2022-09-15T15:22:24.268Z,16.50
2022-09-15T15:24:52.108Z,16.40
2022-09-15T15:27:33.987Z,16.50
2022-09-15T15:30:19.535Z,16.50
2022-09-15T15:32:46.108Z,16.50
2022-09-15T15:35:17.077Z,16.70
2022-09-15T15:37:43.843Z,16.50
2022-09-15T15:40:17.895Z,16.60
2022-09-15T15:43:13.677Z,16.60
2022-09-15T15:45:57.616Z,16.50
2022-09-15T15:48:25.749Z,16.60
2022-09-15T15:50:52.468Z,16.80
2022-09-15T15:53:19.082Z,16.60
2022-09-15T15:55:45.721Z,16.80
2022-09-15T15:58:12.880Z,18.00
2022-09-15T16:00:41.765Z,18.30
2022-09-15T16:03:09.264Z,19.10
2022-09-15T16:05:36.357Z,16.60
2022-09-15T16:08:05.864Z,16.70
2022-09-15T16:10:42.976Z,16.50
2022-09-15T16:13:12.797Z,16.50
2022-09-15T16:15:39.394Z,17.70
2022-09-15T16:18:06.010Z,18.20
2022-09-15T16:20:32.657Z,17.00
2022-09-15T16:22:59.387Z,16.80
2022-09-15T16:25:34.734Z,16.40
2022-09-15T16:28:01.673Z,16.30
2022-09-15T16:30:28.541Z,16.30
2022-09-15T16:32:55.480Z,16.50
2022-09-15T16:35:26.418Z,16.30
2022-09-15T16:37:53.127Z,17.60
2022-09-15T16:40:20.007Z,17.00
2022-09-15T16:42:47.248Z,16.60
2022-09-15T16:45:19.147Z,17.00
2022-09-15T16:47:45.798Z,16.10
2022-09-15T16:50:12.441Z,16.20
2022-09-15T16:52:39.020Z,16.80
2022-09-15T16:55:14.357Z,16.50
2022-09-15T16:57:40.967Z,16.10
2022-09-15T17:00:07.897Z,18.00
2022-09-15T17:02:34.501Z,16.10
2022-09-15T17:05:01.070Z,16.10
2022-09-15T17:07:27.681Z,16.10
2022-09-15T17:09:54.332Z,15.90
2022-09-15T17:12:21.428Z,16.20
2022-09-15T17:14:48.045Z,16.30
2022-09-15T17:17:22.861Z,15.90
2022-09-15T17:19:49.606Z,15.70
2022-09-15T17:22:16.121Z,15.70
2022-09-15T17:24:42.652Z,16.40
2022-09-15T17:27:09.211Z,16.30
2022-09-15T17:29:35.781Z,15.50
2022-09-15T17:32:02.471Z,17.20
2022-09-15T17:34:29.017Z,15.50
2022-09-15T17:36:55.538Z,16.60
2022-09-15T17:39:22.074Z,16.70
2022-09-15T17:41:49.049Z,16.80
2022-09-15T17:44:15.729Z,15.50
2022-09-15T17:46:42.506Z,16.60
2022-09-15T17:49:09.073Z,16.80
2022-09-15T17:51:36.354Z,16.20
2022-09-15T17:54:02.950Z,15.40
2022-09-15T17:56:29.563Z,16.00
2022-09-15T17:58:56.167Z,16.00
2022-09-15T18:01:22.886Z,15.80
2022-09-15T18:03:50.077Z,15.00
2022-09-15T18:06:16.670Z,15.00
2022-09-15T18:08:43.392Z,16.20
2022-09-15T18:11:13.700Z,15.10
2022-09-15T18:13:40.285Z,15.00
2022-09-15T18:16:09.996Z,16.10
2022-09-15T18:18:37.920Z,15.00
2022-09-15T18:21:08.002Z,14.90
2022-09-15T18:23:34.578Z,16.70
2022-09-15T18:26:01.207Z,14.90
2022-09-15T18:28:27.965Z,16.20
2022-09-15T18:30:55.326Z,16.40
2022-09-15T18:33:23.640Z,14.90
2022-09-15T18:35:51.591Z,15.00
2022-09-15T18:38:18.719Z,14.90
2022-09-15T18:40:49.887Z,15.20
2022-09-15T18:43:17.053Z,14.80
2022-09-15T18:45:43.926Z,16.70
2022-09-15T18:48:12.784Z,14.80
2022-09-15T18:50:40.442Z,16.90
2022-09-15T18:53:07.092Z,14.70
2022-09-15T18:55:33.721Z,14.70
2022-09-15T18:58:01.296Z,16.50
2022-09-15T19:00:28.692Z,16.40
2022-09-15T19:02:57.035Z,14.60
2022-09-15T19:05:23.767Z,14.50
2022-09-15T19:07:50.361Z,14.30
2022-09-15T19:10:17.390Z,14.10
2022-09-15T19:12:44.223Z,13.90
2022-09-15T19:15:12.207Z,14.20
2022-09-15T19:17:39.321Z,13.80
2022-09-15T19:20:07.039Z,14.50
2022-09-15T19:22:33.664Z,13.90
2022-09-15T19:25:00.275Z,15.00
2022-09-15T19:27:26.960Z,14.50
2022-09-15T19:29:53.633Z,14.80
2022-09-15T19:32:20.935Z,15.30
2022-09-15T19:34:47.625Z,15.00
2022-09-15T19:37:18.647Z,13.90
2022-09-15T19:39:46.202Z,14.40
2022-09-15T19:42:13.281Z,13.80
2022-09-15T19:44:41.009Z,13.80
2022-09-15T19:47:07.729Z,14.30
2022-09-15T19:49:34.432Z,13.80
2022-09-15T19:52:01.092Z,14.60
2022-09-15T19:54:28.501Z,13.90
2022-09-15T19:56:56.006Z,13.70
2022-09-15T19:59:23.819Z,13.80
2022-09-15T20:01:51.961Z,14.00
2022-09-15T20:04:18.637Z,14.90
2022-09-15T20:06:45.225Z,13.60
2022-09-15T20:09:11.865Z,14.80
2022-09-15T20:11:38.490Z,15.80
2022-09-15T20:14:06.450Z,14.60
2022-09-15T20:16:33.021Z,15.30
2022-09-15T20:18:59.666Z,13.50
2022-09-15T20:21:48.612Z,15.50
2022-09-15T20:24:15.218Z,14.60
2022-09-15T20:26:42.155Z,13.30
2022-09-15T20:29:10.244Z,14.10
2022-09-15T20:31:36.982Z,13.30
2022-09-15T20:34:03.723Z,13.30
2022-09-15T20:36:33.384Z,13.30
2022-09-15T20:39:00.663Z,14.70
2022-09-15T20:41:28.246Z,14.40
2022-09-15T20:43:54.899Z,14.20
2022-09-15T20:46:22.417Z,14.30
2022-09-15T20:48:49.824Z,14.40
2022-09-15T20:51:16.400Z,14.50
2022-09-15T20:53:44.217Z,13.10
2022-09-15T20:56:11.237Z,15.00
2022-09-15T20:58:38.164Z,13.10
2022-09-15T21:01:07.842Z,14.00
2022-09-15T21:03:35.640Z,13.00
2022-09-15T21:06:05.328Z,13.50
2022-09-15T21:08:32.077Z,12.80
2022-09-15T21:10:59.428Z,14.30
2022-09-15T21:13:29.982Z,12.70
2022-09-15T21:15:58.377Z,12.70
2022-09-15T21:18:25.859Z,12.80
2022-09-15T21:20:56.222Z,12.80
2022-09-15T21:23:22.890Z,13.80
2022-09-15T21:26:03.030Z,14.40
2022-09-15T21:28:29.681Z,12.80
2022-09-15T21:31:04.834Z,15.30
2022-09-15T21:33:31.647Z,12.80
2022-09-15T21:36:02.477Z,12.70
2022-09-15T21:38:29.549Z,12.80
2022-09-15T21:40:56.164Z,13.80
2022-09-15T21:43:22.865Z,14.40
2022-09-15T21:45:54.335Z,12.80
2022-09-15T21:48:21.021Z,12.80
2022-09-15T21:50:51.200Z,13.30
2022-09-15T21:53:18.376Z,12.70
2022-09-15T21:55:44.995Z,14.20
2022-09-15T21:58:11.766Z,12.60
2022-09-15T22:00:40.186Z,12.60
2022-09-15T22:03:06.837Z,12.60
2022-09-15T22:05:34.011Z,12.70
2022-09-15T22:08:04.817Z,13.30
2022-09-15T22:10:32.305Z,12.70
2022-09-15T22:12:58.920Z,13.40
2022-09-15T22:15:28.593Z,12.50
2022-09-15T22:17:55.195Z,13.70
2022-09-15T22:20:22.461Z,12.50
2022-09-15T22:22:49.054Z,12.50
2022-09-15T22:25:18.608Z,13.60
2022-09-15T22:27:48.307Z,12.40
2022-09-15T22:30:14.892Z,12.30
2022-09-15T22:32:41.463Z,13.20
2022-09-15T22:35:08.305Z,12.40
2022-09-15T22:37:35.042Z,12.50
2022-09-15T22:40:01.978Z,12.50
2022-09-15T22:42:28.562Z,12.60
2022-09-15T22:44:55.164Z,12.60
2022-09-15T22:47:21.747Z,12.60
2022-09-15T22:49:48.357Z,13.20
2022-09-15T22:52:14.986Z,12.60
2022-09-15T22:54:41.606Z,12.90
2022-09-15T22:57:08.359Z,12.50
2022-09-15T22:59:35.047Z,12.50
2022-09-15T23:02:01.690Z,12.50
2022-09-15T23:04:28.478Z,12.40
2022-09-15T23:06:55.083Z,14.00
2022-09-15T23:09:21.704Z,12.30
2022-09-15T23:11:48.241Z,12.80
2022-09-15T23:14:15.520Z,12.20
2022-09-15T23:16:43.018Z,13.10
2022-09-15T23:19:13.570Z,13.60
2022-09-15T23:21:40.241Z,12.20
2022-09-15T23:24:07.266Z,12.30
2022-09-15T23:26:34.398Z,12.30
2022-09-15T23:29:00.996Z,12.40
2022-09-15T23:31:27.656Z,12.50
2022-09-15T23:33:54.300Z,12.60
2022-09-15T23:36:21.224Z,12.60
2022-09-15T23:38:48.368Z,13.20
2022-09-15T23:41:15.847Z,12.80
2022-09-15T23:43:42.633Z,13.70
2022-09-15T23:46:09.620Z,12.90
2022-09-15T23:48:36.486Z,15.10
2022-09-15T23:51:03.191Z,13.00
2022-09-15T23:53:30.065Z,13.00
2022-09-15T23:55:56.833Z,13.00
2022-09-15T23:58:23.585Z,13.00
